sensor_id;sensor_type;location;lat;lon;timestamp;pressure;altitude;pressure_sealevel;temperature;humidity
7441;BME280;29616;51.950;8.572;2023-09-08T00:00:08;100351.50;;;16.82;100.00
7441;BME280;29616;51.950;8.572;2023-09-08T00:02:38;100356.00;;;16.98;100.00
7441;BME280;29616;51.950;8.572;2023-09-08T00:05:07;100357.53;;;17.01;100.00
7441;BME280;29616;51.950;8.572;2023-09-08T00:07:36;100361.22;;;16.93;100.00
7441;BME280;29616;51.950;8.572;2023-09-08T00:10:06;100342.19;;;16.83;100.00
7441;BME280;29616;51.950;8.572;2023-09-08T00:12:34;100350.53;;;16.75;100.00
7441;BME280;29616;51.950;8.572;2023-09-08T00:15:05;100357.16;;;16.66;100.00
7441;BME280;29616;51.950;8.572;2023-09-08T00:17:34;100335.97;;;16.44;100.00
7441;BME280;29616;51.950;8.572;2023-09-08T00:20:09;100353.69;;;16.50;100.00
7441;BME280;29616;51.950;8.572;2023-09-08T00:22:38;100349.84;;;16.51;100.00
7441;BME280;29616;51.950;8.572;2023-09-08T00:25:07;100342.81;;;16.48;100.00
7441;BME280;29616;51.950;8.572;2023-09-08T00:27:35;100349.19;;;16.49;100.00
7441;BME280;29616;51.950;8.572;2023-09-08T00:30:05;100346.63;;;16.47;100.00
7441;BME280;29616;51.950;8.572;2023-09-08T00:32:35;100330.00;;;16.32;100.00
7441;BME280;29616;51.950;8.572;2023-09-08T00:35:07;100342.91;;;16.63;100.00
7441;BME280;29616;51.950;8.572;2023-09-08T00:37:40;100347.34;;;16.86;100.00
7441;BME280;29616;51.950;8.572;2023-09-08T00:40:09;100322.94;;;16.75;100.00
7441;BME280;29616;51.950;8.572;2023-09-08T00:42:38;100328.84;;;16.72;100.00
7441;BME280;29616;51.950;8.572;2023-09-08T00:45:08;100335.09;;;16.66;100.00
7441;BME280;29616;51.950;8.572;2023-09-08T00:47:37;100352.28;;;16.91;100.00
7441;BME280;29616;51.950;8.572;2023-09-08T00:50:08;100318.91;;;16.63;100.00
7441;BME280;29616;51.950;8.572;2023-09-08T00:52:37;100347.56;;;16.62;100.00
7441;BME280;29616;51.950;8.572;2023-09-08T00:55:07;100340.72;;;16.50;100.00
7441;BME280;29616;51.950;8.572;2023-09-08T00:57:35;100311.63;;;16.25;100.00
7441;BME280;29616;51.950;8.572;2023-09-08T01:00:06;100337.06;;;16.35;100.00
7441;BME280;29616;51.950;8.572;2023-09-08T01:02:34;100344.41;;;16.20;100.00
7441;BME280;29616;51.950;8.572;2023-09-08T01:05:05;100342.03;;;16.17;100.00
7441;BME280;29616;51.950;8.572;2023-09-08T01:07:35;100342.22;;;16.38;100.00
7441;BME280;29616;51.950;8.572;2023-09-08T01:10:05;100343.94;;;16.39;100.00
7441;BME280;29616;51.950;8.572;2023-09-08T01:12:34;100340.97;;;16.41;100.00
7441;BME280;29616;51.950;8.572;2023-09-08T01:15:04;100347.38;;;16.41;100.00
7441;BME280;29616;51.950;8.572;2023-09-08T01:17:33;100311.84;;;16.15;100.00
7441;BME280;29616;51.950;8.572;2023-09-08T01:20:18;100337.31;;;16.25;100.00
7441;BME280;29616;51.950;8.572;2023-09-08T01:23:03;100326.94;;;16.05;100.00
7441;BME280;29616;51.950;8.572;2023-09-08T01:25:46;100344.13;;;16.15;100.00
7441;BME280;29616;51.950;8.572;2023-09-08T01:28:19;100337.69;;;16.22;100.00
7441;BME280;29616;51.950;8.572;2023-09-08T01:30:50;100353.00;;;16.25;100.00
7441;BME280;29616;51.950;8.572;2023-09-08T01:33:19;100343.44;;;16.35;100.00
7441;BME280;29616;51.950;8.572;2023-09-08T01:35:49;100345.47;;;16.42;100.00
7441;BME280;29616;51.950;8.572;2023-09-08T01:38:21;100322.81;;;16.23;100.00
7441;BME280;29616;51.950;8.572;2023-09-08T01:40:51;100341.59;;;16.28;100.00
7441;BME280;29616;51.950;8.572;2023-09-08T01:43:20;100343.06;;;16.16;100.00
7441;BME280;29616;51.950;8.572;2023-09-08T01:45:49;100348.22;;;16.19;100.00
7441;BME280;29616;51.950;8.572;2023-09-08T01:48:17;100346.50;;;16.18;100.00
7441;BME280;29616;51.950;8.572;2023-09-08T01:50:47;100347.59;;;16.09;100.00
7441;BME280;29616;51.950;8.572;2023-09-08T01:53:15;100346.97;;;15.99;100.00
7441;BME280;29616;51.950;8.572;2023-09-08T01:55:44;100354.19;;;16.00;100.00
7441;BME280;29616;51.950;8.572;2023-09-08T01:58:14;100327.38;;;15.94;100.00
7441;BME280;29616;51.950;8.572;2023-09-08T02:00:42;100347.78;;;16.07;100.00
7441;BME280;29616;51.950;8.572;2023-09-08T02:03:11;100343.75;;;16.18;100.00
7441;BME280;29616;51.950;8.572;2023-09-08T02:05:40;100345.81;;;16.16;100.00
7441;BME280;29616;51.950;8.572;2023-09-08T02:08:09;100342.28;;;16.07;100.00
7441;BME280;29616;51.950;8.572;2023-09-08T02:10:40;100332.13;;;16.00;100.00
7441;BME280;29616;51.950;8.572;2023-09-08T02:13:08;100324.16;;;16.05;100.00
7441;BME280;29616;51.950;8.572;2023-09-08T02:15:38;100320.75;;;16.03;100.00
7441;BME280;29616;51.950;8.572;2023-09-08T02:18:08;100320.31;;;15.91;100.00
7441;BME280;29616;51.950;8.572;2023-09-08T02:20:37;100337.75;;;15.84;100.00
7441;BME280;29616;51.950;8.572;2023-09-08T02:23:06;100339.00;;;15.73;100.00
7441;BME280;29616;51.950;8.572;2023-09-08T02:25:35;100305.56;;;15.53;100.00
7441;BME280;29616;51.950;8.572;2023-09-08T02:28:04;100337.00;;;15.67;100.00
7441;BME280;29616;51.950;8.572;2023-09-08T02:30:33;100341.41;;;15.76;100.00
7441;BME280;29616;51.950;8.572;2023-09-08T02:33:04;100329.16;;;15.78;100.00
7441;BME280;29616;51.950;8.572;2023-09-08T02:35:36;100328.44;;;15.85;100.00
7441;BME280;29616;51.950;8.572;2023-09-08T02:38:08;100332.03;;;15.93;100.00
7441;BME280;29616;51.950;8.572;2023-09-08T02:40:37;100338.41;;;15.94;100.00
7441;BME280;29616;51.950;8.572;2023-09-08T02:43:06;100305.47;;;15.69;100.00
7441;BME280;29616;51.950;8.572;2023-09-08T02:45:35;100327.47;;;15.77;100.00
7441;BME280;29616;51.950;8.572;2023-09-08T02:48:06;100310.38;;;15.51;100.00
7441;BME280;29616;51.950;8.572;2023-09-08T02:50:34;100332.78;;;15.48;100.00
7441;BME280;29616;51.950;8.572;2023-09-08T02:53:03;100335.34;;;15.42;100.00
7441;BME280;29616;51.950;8.572;2023-09-08T02:55:32;100338.97;;;15.42;100.00
7441;BME280;29616;51.950;8.572;2023-09-08T02:58:01;100342.72;;;15.41;100.00
7441;BME280;29616;51.950;8.572;2023-09-08T03:00:30;100339.38;;;15.23;100.00
7441;BME280;29616;51.950;8.572;2023-09-08T03:02:58;100341.44;;;15.21;100.00
7441;BME280;29616;51.950;8.572;2023-09-08T03:05:28;100337.69;;;15.14;100.00
7441;BME280;29616;51.950;8.572;2023-09-08T03:07:57;100340.94;;;15.17;100.00
7441;BME280;29616;51.950;8.572;2023-09-08T03:10:26;100338.03;;;15.19;100.00
7441;BME280;29616;51.950;8.572;2023-09-08T03:12:57;100328.75;;;15.04;100.00
7441;BME280;29616;51.950;8.572;2023-09-08T03:15:26;100335.06;;;15.21;100.00
7441;BME280;29616;51.950;8.572;2023-09-08T03:17:56;100317.00;;;15.26;100.00
7441;BME280;29616;51.950;8.572;2023-09-08T03:20:25;100317.50;;;15.30;100.00
7441;BME280;29616;51.950;8.572;2023-09-08T03:22:56;100332.25;;;15.37;100.00
7441;BME280;29616;51.950;8.572;2023-09-08T03:25:26;100338.81;;;15.28;100.00
7441;BME280;29616;51.950;8.572;2023-09-08T03:27:55;100339.22;;;15.25;100.00
7441;BME280;29616;51.950;8.572;2023-09-08T03:30:23;100329.22;;;15.24;100.00
7441;BME280;29616;51.950;8.572;2023-09-08T03:32:52;100330.03;;;15.40;100.00
7441;BME280;29616;51.950;8.572;2023-09-08T03:35:21;100315.91;;;15.51;100.00
7441;BME280;29616;51.950;8.572;2023-09-08T03:37:49;100284.09;;;15.33;100.00
7441;BME280;29616;51.950;8.572;2023-09-08T03:40:19;100313.19;;;15.35;100.00
7441;BME280;29616;51.950;8.572;2023-09-08T03:42:48;100315.06;;;15.35;100.00
7441;BME280;29616;51.950;8.572;2023-09-08T03:45:17;100315.94;;;15.35;100.00
7441;BME280;29616;51.950;8.572;2023-09-08T03:47:45;100301.16;;;15.28;100.00
7441;BME280;29616;51.950;8.572;2023-09-08T03:50:15;100320.78;;;15.25;100.00
7441;BME280;29616;51.950;8.572;2023-09-08T03:52:45;100315.25;;;15.25;100.00
7441;BME280;29616;51.950;8.572;2023-09-08T03:55:15;100325.56;;;15.31;100.00
7441;BME280;29616;51.950;8.572;2023-09-08T03:57:46;100319.19;;;15.31;100.00
7441;BME280;29616;51.950;8.572;2023-09-08T04:00:17;100312.16;;;15.28;100.00
7441;BME280;29616;51.950;8.572;2023-09-08T04:02:49;100311.78;;;15.39;100.00
7441;BME280;29616;51.950;8.572;2023-09-08T04:05:18;100318.81;;;15.42;100.00
7441;BME280;29616;51.950;8.572;2023-09-08T04:07:47;100316.28;;;15.32;100.00
7441;BME280;29616;51.950;8.572;2023-09-08T04:10:17;100317.28;;;15.39;100.00
7441;BME280;29616;51.950;8.572;2023-09-08T04:12:47;100316.63;;;15.29;100.00
7441;BME280;29616;51.950;8.572;2023-09-08T04:15:16;100313.53;;;15.32;100.00
7441;BME280;29616;51.950;8.572;2023-09-08T04:17:45;100309.66;;;15.57;100.00
7441;BME280;29616;51.950;8.572;2023-09-08T04:20:15;100292.41;;;15.86;100.00
7441;BME280;29616;51.950;8.572;2023-09-08T04:22:43;100305.69;;;15.91;100.00
7441;BME280;29616;51.950;8.572;2023-09-08T04:25:12;100284.66;;;15.67;100.00
7441;BME280;29616;51.950;8.572;2023-09-08T04:27:40;100310.19;;;15.84;100.00
7441;BME280;29616;51.950;8.572;2023-09-08T04:30:12;100308.59;;;15.89;100.00
7441;BME280;29616;51.950;8.572;2023-09-08T04:32:41;100312.06;;;15.91;100.00
7441;BME280;29616;51.950;8.572;2023-09-08T04:35:11;100319.41;;;15.99;100.00
7441;BME280;29616;51.950;8.572;2023-09-08T04:37:40;100317.13;;;16.02;100.00
7441;BME280;29616;51.950;8.572;2023-09-08T04:40:09;100291.94;;;15.83;100.00
7441;BME280;29616;51.950;8.572;2023-09-08T04:42:39;100312.06;;;16.14;100.00
7441;BME280;29616;51.950;8.572;2023-09-08T04:45:10;100302.91;;;16.13;100.00
7441;BME280;29616;51.950;8.572;2023-09-08T04:47:39;100304.34;;;16.09;100.00
7441;BME280;29616;51.950;8.572;2023-09-08T04:50:09;100313.84;;;16.07;100.00
7441;BME280;29616;51.950;8.572;2023-09-08T04:52:38;100310.28;;;15.98;100.00
7441;BME280;29616;51.950;8.572;2023-09-08T04:55:09;100313.59;;;15.94;100.00
7441;BME280;29616;51.950;8.572;2023-09-08T04:57:37;100315.22;;;16.03;100.00
7441;BME280;29616;51.950;8.572;2023-09-08T05:00:07;100314.63;;;16.15;100.00
7441;BME280;29616;51.950;8.572;2023-09-08T05:02:37;100297.59;;;16.12;100.00
7441;BME280;29616;51.950;8.572;2023-09-08T05:05:07;100272.91;;;15.96;100.00
7441;BME280;29616;51.950;8.572;2023-09-08T05:07:36;100319.53;;;16.28;100.00
7441;BME280;29616;51.950;8.572;2023-09-08T05:10:06;100313.25;;;16.34;100.00
7441;BME280;29616;51.950;8.572;2023-09-08T05:12:36;100323.69;;;16.47;100.00
7441;BME280;29616;51.950;8.572;2023-09-08T05:15:06;100314.19;;;16.49;100.00
7441;BME280;29616;51.950;8.572;2023-09-08T05:17:47;100297.63;;;16.49;100.00
7441;BME280;29616;51.950;8.572;2023-09-08T05:20:18;100319.53;;;16.73;100.00
7441;BME280;29616;51.950;8.572;2023-09-08T05:22:47;100304.75;;;16.66;100.00
7441;BME280;29616;51.950;8.572;2023-09-08T05:25:17;100286.19;;;16.60;100.00
7441;BME280;29616;51.950;8.572;2023-09-08T05:27:45;100318.78;;;16.94;100.00
7441;BME280;29616;51.950;8.572;2023-09-08T05:30:16;100325.47;;;17.00;100.00
7441;BME280;29616;51.950;8.572;2023-09-08T05:32:47;100313.19;;;17.02;100.00
7441;BME280;29616;51.950;8.572;2023-09-08T05:35:17;100312.22;;;17.10;100.00
7441;BME280;29616;51.950;8.572;2023-09-08T05:37:46;100322.81;;;17.21;100.00
7441;BME280;29616;51.950;8.572;2023-09-08T05:40:15;100325.72;;;17.48;100.00
7441;BME280;29616;51.950;8.572;2023-09-08T05:42:44;100309.06;;;17.71;100.00
7441;BME280;29616;51.950;8.572;2023-09-08T05:45:13;100308.19;;;17.85;100.00
7441;BME280;29616;51.950;8.572;2023-09-08T05:47:42;100318.03;;;18.09;100.00
7441;BME280;29616;51.950;8.572;2023-09-08T05:50:13;100309.13;;;18.13;100.00
7441;BME280;29616;51.950;8.572;2023-09-08T05:52:42;100313.63;;;18.36;100.00
7441;BME280;29616;51.950;8.572;2023-09-08T05:55:11;100314.91;;;18.54;100.00
7441;BME280;29616;51.950;8.572;2023-09-08T05:57:40;100317.81;;;18.74;100.00
7441;BME280;29616;51.950;8.572;2023-09-08T06:00:10;100301.31;;;18.87;100.00
7441;BME280;29616;51.950;8.572;2023-09-08T06:02:42;100325.31;;;19.35;100.00
7441;BME280;29616;51.950;8.572;2023-09-08T06:05:15;100309.19;;;19.46;100.00
7441;BME280;29616;51.950;8.572;2023-09-08T06:07:53;100310.44;;;19.84;100.00
7441;BME280;29616;51.950;8.572;2023-09-08T06:10:33;100303.22;;;19.89;100.00
7441;BME280;29616;51.950;8.572;2023-09-08T06:13:03;100310.94;;;20.07;100.00
7441;BME280;29616;51.950;8.572;2023-09-08T06:15:32;100308.28;;;20.46;100.00
7441;BME280;29616;51.950;8.572;2023-09-08T06:18:01;100308.09;;;20.68;100.00
7441;BME280;29616;51.950;8.572;2023-09-08T06:20:32;100307.22;;;21.20;100.00
7441;BME280;29616;51.950;8.572;2023-09-08T06:23:02;100317.16;;;21.53;100.00
7441;BME280;29616;51.950;8.572;2023-09-08T06:25:30;100313.09;;;21.62;100.00
7441;BME280;29616;51.950;8.572;2023-09-08T06:27:59;100302.50;;;21.91;100.00
7441;BME280;29616;51.950;8.572;2023-09-08T06:30:28;100269.00;;;22.10;100.00
7441;BME280;29616;51.950;8.572;2023-09-08T06:32:57;100304.91;;;22.56;100.00
7441;BME280;29616;51.950;8.572;2023-09-08T06:35:27;100275.59;;;22.47;100.00
7441;BME280;29616;51.950;8.572;2023-09-08T06:37:57;100303.41;;;22.85;100.00
7441;BME280;29616;51.950;8.572;2023-09-08T06:40:29;100298.59;;;23.41;100.00
7441;BME280;29616;51.950;8.572;2023-09-08T06:42:57;100305.66;;;24.28;100.00
7441;BME280;29616;51.950;8.572;2023-09-08T06:45:42;100294.91;;;25.43;100.00
7441;BME280;29616;51.950;8.572;2023-09-08T06:48:10;100316.63;;;27.00;100.00
7441;BME280;29616;51.950;8.572;2023-09-08T06:50:39;100307.63;;;27.48;100.00
7441;BME280;29616;51.950;8.572;2023-09-08T06:53:10;100325.59;;;27.90;100.00
7441;BME280;29616;51.950;8.572;2023-09-08T06:55:40;100305.97;;;28.34;100.00
7441;BME280;29616;51.950;8.572;2023-09-08T06:58:13;100317.00;;;28.67;100.00
7441;BME280;29616;51.950;8.572;2023-09-08T07:00:43;100298.91;;;28.58;100.00
7441;BME280;29616;51.950;8.572;2023-09-08T07:03:13;100325.81;;;28.75;100.00
7441;BME280;29616;51.950;8.572;2023-09-08T07:05:42;100329.53;;;29.91;100.00
7441;BME280;29616;51.950;8.572;2023-09-08T07:08:13;100316.09;;;30.03;96.68
7441;BME280;29616;51.950;8.572;2023-09-08T07:10:43;100336.16;;;29.28;100.00
7441;BME280;29616;51.950;8.572;2023-09-08T07:13:12;100324.28;;;29.63;100.00
7441;BME280;29616;51.950;8.572;2023-09-08T07:15:41;100325.97;;;29.22;100.00
7441;BME280;29616;51.950;8.572;2023-09-08T07:18:10;100332.84;;;30.35;94.54
7441;BME280;29616;51.950;8.572;2023-09-08T07:20:38;100342.34;;;29.67;96.31
7441;BME280;29616;51.950;8.572;2023-09-08T07:23:07;100313.28;;;30.09;95.65
7441;BME280;29616;51.950;8.572;2023-09-08T07:25:38;100339.69;;;29.92;92.46
7441;BME280;29616;51.950;8.572;2023-09-08T07:28:06;100300.78;;;29.37;95.99
7441;BME280;29616;51.950;8.572;2023-09-08T07:30:36;100317.94;;;29.41;94.77
7441;BME280;29616;51.950;8.572;2023-09-08T07:33:06;100323.97;;;29.96;96.22
7441;BME280;29616;51.950;8.572;2023-09-08T07:35:37;100316.53;;;30.37;92.84
7441;BME280;29616;51.950;8.572;2023-09-08T07:38:07;100325.09;;;30.06;92.58
7441;BME280;29616;51.950;8.572;2023-09-08T07:40:42;100342.13;;;30.26;91.87
7441;BME280;29616;51.950;8.572;2023-09-08T07:43:11;100337.13;;;30.43;91.68
7441;BME280;29616;51.950;8.572;2023-09-08T07:45:41;100285.38;;;29.55;93.85
7441;BME280;29616;51.950;8.572;2023-09-08T07:48:10;100343.00;;;29.79;92.99
7441;BME280;29616;51.950;8.572;2023-09-08T07:50:40;100338.19;;;29.75;94.81
7441;BME280;29616;51.950;8.572;2023-09-08T07:53:09;100327.91;;;30.00;93.98
7441;BME280;29616;51.950;8.572;2023-09-08T07:55:39;100326.81;;;30.01;97.22
7441;BME280;29616;51.950;8.572;2023-09-08T07:58:08;100318.59;;;29.95;95.56
7441;BME280;29616;51.950;8.572;2023-09-08T08:00:37;100323.97;;;30.01;92.00
7441;BME280;29616;51.950;8.572;2023-09-08T08:03:07;100328.41;;;29.87;96.93
7441;BME280;29616;51.950;8.572;2023-09-08T08:05:37;100332.59;;;29.80;91.21
7441;BME280;29616;51.950;8.572;2023-09-08T08:08:06;100335.38;;;29.75;94.46
7441;BME280;29616;51.950;8.572;2023-09-08T08:10:40;100329.91;;;30.05;92.33
7441;BME280;29616;51.950;8.572;2023-09-08T08:13:09;100339.75;;;30.02;94.66
7441;BME280;29616;51.950;8.572;2023-09-08T08:15:40;100342.81;;;29.91;94.23
7441;BME280;29616;51.950;8.572;2023-09-08T08:18:09;100308.50;;;30.09;91.75
7441;BME280;29616;51.950;8.572;2023-09-08T08:20:38;100331.41;;;30.33;89.60
7441;BME280;29616;51.950;8.572;2023-09-08T08:23:08;100338.84;;;30.59;91.32
7441;BME280;29616;51.950;8.572;2023-09-08T08:25:38;100318.34;;;31.04;89.42
7441;BME280;29616;51.950;8.572;2023-09-08T08:28:08;100338.66;;;31.31;79.53
7441;BME280;29616;51.950;8.572;2023-09-08T08:30:37;100340.34;;;31.17;80.95
7441;BME280;29616;51.950;8.572;2023-09-08T08:33:06;100342.06;;;31.33;79.78
7441;BME280;29616;51.950;8.572;2023-09-08T08:35:35;100333.56;;;31.38;77.05
7441;BME280;29616;51.950;8.572;2023-09-08T08:38:04;100340.63;;;31.66;79.61
7441;BME280;29616;51.950;8.572;2023-09-08T08:40:32;100310.41;;;31.41;77.86
7441;BME280;29616;51.950;8.572;2023-09-08T08:43:16;100325.97;;;31.59;78.40
7441;BME280;29616;51.950;8.572;2023-09-08T08:45:46;100332.44;;;31.74;80.57
7441;BME280;29616;51.950;8.572;2023-09-08T08:48:19;100337.19;;;31.84;75.43
7441;BME280;29616;51.950;8.572;2023-09-08T08:50:53;100329.91;;;31.63;78.09
7441;BME280;29616;51.950;8.572;2023-09-08T08:53:21;100327.59;;;31.85;75.25
7441;BME280;29616;51.950;8.572;2023-09-08T08:55:51;100331.47;;;32.14;76.50
7441;BME280;29616;51.950;8.572;2023-09-08T08:58:23;100326.75;;;32.59;69.96
7441;BME280;29616;51.950;8.572;2023-09-08T09:00:54;100331.34;;;32.39;68.14
7441;BME280;29616;51.950;8.572;2023-09-08T09:03:26;100332.81;;;32.27;72.87
7441;BME280;29616;51.950;8.572;2023-09-08T09:05:56;100307.28;;;32.42;71.82
7441;BME280;29616;51.950;8.572;2023-09-08T09:08:27;100310.72;;;32.34;71.75
7441;BME280;29616;51.950;8.572;2023-09-08T09:10:56;100320.78;;;32.65;70.50
7441;BME280;29616;51.950;8.572;2023-09-08T09:13:27;100320.47;;;32.67;67.69
7441;BME280;29616;51.950;8.572;2023-09-08T09:15:59;100328.75;;;32.97;68.06
7441;BME280;29616;51.950;8.572;2023-09-08T09:18:31;100311.72;;;33.02;66.08
7441;BME280;29616;51.950;8.572;2023-09-08T09:21:01;100326.25;;;33.29;64.74
7441;BME280;29616;51.950;8.572;2023-09-08T09:23:30;100316.34;;;33.55;65.41
7441;BME280;29616;51.950;8.572;2023-09-08T09:26:01;100328.47;;;33.66;66.19
7441;BME280;29616;51.950;8.572;2023-09-08T09:28:32;100331.44;;;33.75;61.42
7441;BME280;29616;51.950;8.572;2023-09-08T09:31:02;100323.91;;;32.97;63.81
7441;BME280;29616;51.950;8.572;2023-09-08T09:33:31;100295.28;;;33.04;65.49
7441;BME280;29616;51.950;8.572;2023-09-08T09:36:00;100331.78;;;33.97;61.21
7441;BME280;29616;51.950;8.572;2023-09-08T09:38:30;100309.16;;;33.39;62.48
7441;BME280;29616;51.950;8.572;2023-09-08T09:40:59;100286.66;;;33.19;65.64
7441;BME280;29616;51.950;8.572;2023-09-08T09:43:28;100321.31;;;33.40;65.89
7441;BME280;29616;51.950;8.572;2023-09-08T09:45:59;100315.13;;;33.67;64.94
7441;BME280;29616;51.950;8.572;2023-09-08T09:48:28;100314.88;;;34.34;64.48
7441;BME280;29616;51.950;8.572;2023-09-08T09:50:57;100309.09;;;34.21;63.05
7441;BME280;29616;51.950;8.572;2023-09-08T09:53:26;100304.53;;;34.01;63.38
7441;BME280;29616;51.950;8.572;2023-09-08T09:55:56;100298.47;;;34.31;60.56
7441;BME280;29616;51.950;8.572;2023-09-08T09:58:25;100303.69;;;34.24;61.82
7441;BME280;29616;51.950;8.572;2023-09-08T10:00:55;100305.38;;;34.25;61.37
7441;BME280;29616;51.950;8.572;2023-09-08T10:03:26;100299.75;;;34.20;61.93
7441;BME280;29616;51.950;8.572;2023-09-08T10:05:58;100305.28;;;34.11;59.61
7441;BME280;29616;51.950;8.572;2023-09-08T10:08:34;100288.22;;;33.64;62.12
7441;BME280;29616;51.950;8.572;2023-09-08T10:11:07;100286.13;;;34.22;58.69
7441;BME280;29616;51.950;8.572;2023-09-08T10:13:41;100280.56;;;34.12;58.79
7441;BME280;29616;51.950;8.572;2023-09-08T10:16:16;100302.97;;;34.13;60.75
7441;BME280;29616;51.950;8.572;2023-09-08T10:18:52;100303.53;;;34.34;58.97
7441;BME280;29616;51.950;8.572;2023-09-08T10:21:24;100306.81;;;34.65;57.11
7441;BME280;29616;51.950;8.572;2023-09-08T10:24:01;100290.22;;;34.53;58.58
7441;BME280;29616;51.950;8.572;2023-09-08T10:26:40;100294.44;;;35.12;59.00
7441;BME280;29616;51.950;8.572;2023-09-08T10:29:13;100286.53;;;35.09;54.60
7441;BME280;29616;51.950;8.572;2023-09-08T10:31:43;100280.84;;;35.09;56.21
7441;BME280;29616;51.950;8.572;2023-09-08T10:34:14;100295.81;;;34.96;55.60
7441;BME280;29616;51.950;8.572;2023-09-08T10:36:43;100269.66;;;34.24;58.79
7441;BME280;29616;51.950;8.572;2023-09-08T10:39:32;100268.75;;;34.66;58.19
7441;BME280;29616;51.950;8.572;2023-09-08T10:42:23;100288.75;;;34.93;55.32
7441;BME280;29616;51.950;8.572;2023-09-08T10:44:59;100284.31;;;34.87;55.61
7441;BME280;29616;51.950;8.572;2023-09-08T10:47:39;100293.16;;;34.86;55.89
7441;BME280;29616;51.950;8.572;2023-09-08T10:50:19;100271.94;;;35.15;53.82
7441;BME280;29616;51.950;8.572;2023-09-08T10:53:09;100289.00;;;34.97;56.46
7441;BME280;29616;51.950;8.572;2023-09-08T10:55:44;100267.41;;;34.96;56.60
7441;BME280;29616;51.950;8.572;2023-09-08T10:58:37;100289.00;;;35.15;56.42
7441;BME280;29616;51.950;8.572;2023-09-08T11:01:15;100289.22;;;34.82;55.51
7441;BME280;29616;51.950;8.572;2023-09-08T11:03:46;100278.97;;;34.86;56.56
7441;BME280;29616;51.950;8.572;2023-09-08T11:06:21;100283.44;;;34.73;56.26
7441;BME280;29616;51.950;8.572;2023-09-08T11:08:51;100289.47;;;34.85;54.74
7441;BME280;29616;51.950;8.572;2023-09-08T11:11:23;100283.88;;;34.80;55.17
7441;BME280;29616;51.950;8.572;2023-09-08T11:13:52;100291.44;;;35.68;53.77
7441;BME280;29616;51.950;8.572;2023-09-08T11:16:21;100288.22;;;35.10;56.74
7441;BME280;29616;51.950;8.572;2023-09-08T11:18:56;100275.13;;;35.27;57.40
7441;BME280;29616;51.950;8.572;2023-09-08T11:21:27;100296.41;;;35.76;50.98
7441;BME280;29616;51.950;8.572;2023-09-08T11:24:02;100286.47;;;35.60;52.75
7441;BME280;29616;51.950;8.572;2023-09-08T11:26:33;100287.03;;;35.43;50.43
7441;BME280;29616;51.950;8.572;2023-09-08T11:29:03;100281.94;;;35.13;52.32
7441;BME280;29616;51.950;8.572;2023-09-08T11:31:32;100284.69;;;35.18;53.87
7441;BME280;29616;51.950;8.572;2023-09-08T11:34:04;100284.59;;;35.23;51.92
7441;BME280;29616;51.950;8.572;2023-09-08T11:36:35;100280.06;;;35.03;53.75
7441;BME280;29616;51.950;8.572;2023-09-08T11:39:05;100283.19;;;35.53;54.29
7441;BME280;29616;51.950;8.572;2023-09-08T11:41:35;100277.31;;;35.17;53.60
7441;BME280;29616;51.950;8.572;2023-09-08T11:44:05;100275.59;;;35.16;52.41
7441;BME280;29616;51.950;8.572;2023-09-08T11:46:33;100273.31;;;35.18;53.25
7441;BME280;29616;51.950;8.572;2023-09-08T11:49:04;100281.44;;;35.70;52.52
7441;BME280;29616;51.950;8.572;2023-09-08T11:51:34;100267.09;;;35.62;53.54
7441;BME280;29616;51.950;8.572;2023-09-08T11:54:05;100272.22;;;36.06;49.13
7441;BME280;29616;51.950;8.572;2023-09-08T11:56:34;100257.00;;;35.69;50.30
7441;BME280;29616;51.950;8.572;2023-09-08T11:59:06;100258.72;;;35.98;49.42
7441;BME280;29616;51.950;8.572;2023-09-08T12:01:36;100255.50;;;36.40;46.07
7441;BME280;29616;51.950;8.572;2023-09-08T12:04:05;100267.25;;;35.98;45.92
7441;BME280;29616;51.950;8.572;2023-09-08T12:06:36;100262.91;;;35.59;49.35
7441;BME280;29616;51.950;8.572;2023-09-08T12:09:05;100261.66;;;35.93;47.52
7441;BME280;29616;51.950;8.572;2023-09-08T12:11:36;100245.88;;;36.14;48.34
7441;BME280;29616;51.950;8.572;2023-09-08T12:14:12;100218.03;;;35.97;49.21
7441;BME280;29616;51.950;8.572;2023-09-08T12:16:42;100237.66;;;36.62;46.85
7441;BME280;29616;51.950;8.572;2023-09-08T12:19:29;100250.22;;;36.47;46.93
7441;BME280;29616;51.950;8.572;2023-09-08T12:22:03;100242.06;;;36.18;49.62
7441;BME280;29616;51.950;8.572;2023-09-08T12:24:56;100254.06;;;36.15;47.11
7441;BME280;29616;51.950;8.572;2023-09-08T12:27:26;100246.28;;;36.07;48.26
7441;BME280;29616;51.950;8.572;2023-09-08T12:29:57;100231.34;;;36.02;49.24
7441;BME280;29616;51.950;8.572;2023-09-08T12:32:30;100249.63;;;36.94;46.96
7441;BME280;29616;51.950;8.572;2023-09-08T12:35:03;100245.16;;;36.44;48.24
7441;BME280;29616;51.950;8.572;2023-09-08T12:37:34;100239.28;;;36.54;46.18
7441;BME280;29616;51.950;8.572;2023-09-08T12:40:05;100240.53;;;36.48;46.59
7441;BME280;29616;51.950;8.572;2023-09-08T12:42:34;100231.78;;;36.80;45.35
7441;BME280;29616;51.950;8.572;2023-09-08T12:45:09;100237.06;;;36.51;45.48
7441;BME280;29616;51.950;8.572;2023-09-08T12:47:39;100233.84;;;36.66;43.49
7441;BME280;29616;51.950;8.572;2023-09-08T12:50:10;100223.44;;;36.48;44.16
7441;BME280;29616;51.950;8.572;2023-09-08T12:52:42;100225.25;;;36.80;44.88
7441;BME280;29616;51.950;8.572;2023-09-08T12:55:13;100223.47;;;36.70;45.65
7441;BME280;29616;51.950;8.572;2023-09-08T12:57:42;100230.09;;;36.79;45.30
7441;BME280;29616;51.950;8.572;2023-09-08T13:00:13;100223.22;;;36.58;45.33
7441;BME280;29616;51.950;8.572;2023-09-08T13:02:43;100223.22;;;36.58;43.82
7441;BME280;29616;51.950;8.572;2023-09-08T13:05:12;100233.44;;;36.10;45.12
7441;BME280;29616;51.950;8.572;2023-09-08T13:07:43;100231.69;;;36.36;45.90
7441;BME280;29616;51.950;8.572;2023-09-08T13:10:12;100201.09;;;36.55;46.03
7441;BME280;29616;51.950;8.572;2023-09-08T13:12:41;100212.19;;;36.43;46.36